sensor_id;sensor_type;location;lat;lon;timestamp;P1;durP1;ratioP1;P2;durP2;ratioP2
39256;SDS011;24958;48.066;11.038;2022-08-01T00:01:02;3.17;;;2.95;;
39256;SDS011;24958;48.066;11.038;2022-08-01T00:03:28;3.53;;;3.17;;
39256;SDS011;24958;48.066;11.038;2022-08-01T00:05:54;3.38;;;3.17;;
39256;SDS011;24958;48.066;11.038;2022-08-01T00:08:20;3.08;;;2.88;;
39256;SDS011;24958;48.066;11.038;2022-08-01T00:10:46;2.67;;;2.47;;
39256;SDS011;24958;48.066;11.038;2022-08-01T00:13:12;3.40;;;3.10;;
39256;SDS011;24958;48.066;11.038;2022-08-01T00:15:38;3.20;;;3.00;;
39256;SDS011;24958;48.066;11.038;2022-08-01T00:18:04;3.10;;;2.90;;
39256;SDS011;24958;48.066;11.038;2022-08-01T00:20:30;3.88;;;2.92;;
39256;SDS011;24958;48.066;11.038;2022-08-01T00:22:56;3.60;;;3.30;;
39256;SDS011;24958;48.066;11.038;2022-08-01T00:25:22;3.22;;;2.95;;
39256;SDS011;24958;48.066;11.038;2022-08-01T00:27:48;3.40;;;3.20;;
39256;SDS011;24958;48.066;11.038;2022-08-01T00:30:14;3.08;;;2.88;;
39256;SDS011;24958;48.066;11.038;2022-08-01T00:32:41;3.22;;;3.03;;
39256;SDS011;24958;48.066;11.038;2022-08-01T00:35:07;3.28;;;3.00;;
39256;SDS011;24958;48.066;11.038;2022-08-01T00:37:33;3.28;;;2.97;;
39256;SDS011;24958;48.066;11.038;2022-08-01T00:39:59;3.20;;;3.00;;
39256;SDS011;24958;48.066;11.038;2022-08-01T00:42:25;3.53;;;3.22;;
39256;SDS011;24958;48.066;11.038;2022-08-01T00:44:51;3.67;;;3.35;;
39256;SDS011;24958;48.066;11.038;2022-08-01T00:47:17;4.82;;;3.30;;
39256;SDS011;24958;48.066;11.038;2022-08-01T00:49:43;3.53;;;3.22;;
39256;SDS011;24958;48.066;11.038;2022-08-01T00:52:09;2.80;;;2.60;;
39256;SDS011;24958;48.066;11.038;2022-08-01T00:54:35;3.58;;;3.28;;
39256;SDS011;24958;48.066;11.038;2022-08-01T00:57:01;3.00;;;2.80;;
39256;SDS011;24958;48.066;11.038;2022-08-01T00:59:28;3.53;;;3.28;;
39256;SDS011;24958;48.066;11.038;2022-08-01T01:01:54;3.60;;;3.30;;
39256;SDS011;24958;48.066;11.038;2022-08-01T01:04:20;3.40;;;3.20;;
39256;SDS011;24958;48.066;11.038;2022-08-01T01:09:17;3.78;;;3.47;;
39256;SDS011;24958;48.066;11.038;2022-08-01T01:14:31;3.75;;;3.47;;
39256;SDS011;24958;48.066;11.038;2022-08-01T01:16:59;3.60;;;3.40;;
39256;SDS011;24958;48.066;11.038;2022-08-01T01:19:28;3.45;;;3.17;;
39256;SDS011;24958;48.066;11.038;2022-08-01T01:24:44;3.50;;;3.20;;
39256;SDS011;24958;48.066;11.038;2022-08-01T01:29:40;3.75;;;3.10;;
39256;SDS011;24958;48.066;11.038;2022-08-01T01:32:13;3.97;;;3.38;;
39256;SDS011;24958;48.066;11.038;2022-08-01T01:34:40;3.63;;;3.35;;
39256;SDS011;24958;48.066;11.038;2022-08-01T01:37:10;3.20;;;3.00;;
39256;SDS011;24958;48.066;11.038;2022-08-01T01:39:36;3.08;;;2.80;;
39256;SDS011;24958;48.066;11.038;2022-08-01T01:42:04;3.70;;;3.30;;
39256;SDS011;24958;48.066;11.038;2022-08-01T01:44:32;3.50;;;3.20;;
39256;SDS011;24958;48.066;11.038;2022-08-01T01:46:59;3.42;;;3.13;;
39256;SDS011;24958;48.066;11.038;2022-08-01T01:49:26;3.65;;;3.33;;
39256;SDS011;24958;48.066;11.038;2022-08-01T01:51:54;3.47;;;3.28;;
39256;SDS011;24958;48.066;11.038;2022-08-01T01:54:22;4.13;;;3.17;;
39256;SDS011;24958;48.066;11.038;2022-08-01T01:56:49;3.58;;;3.15;;
39256;SDS011;24958;48.066;11.038;2022-08-01T01:59:19;3.63;;;3.30;;
39256;SDS011;24958;48.066;11.038;2022-08-01T02:01:46;3.40;;;3.20;;
39256;SDS011;24958;48.066;11.038;2022-08-01T02:04:13;3.40;;;3.20;;
39256;SDS011;24958;48.066;11.038;2022-08-01T02:06:39;3.88;;;3.58;;
39256;SDS011;24958;48.066;11.038;2022-08-01T02:09:06;3.65;;;3.08;;
39256;SDS011;24958;48.066;11.038;2022-08-01T02:11:33;3.72;;;3.40;;
39256;SDS011;24958;48.066;11.038;2022-08-01T02:14:00;3.90;;;3.60;;
39256;SDS011;24958;48.066;11.038;2022-08-01T02:16:28;3.55;;;3.25;;
39256;SDS011;24958;48.066;11.038;2022-08-01T02:18:54;4.03;;;3.63;;
39256;SDS011;24958;48.066;11.038;2022-08-01T02:21:23;3.72;;;3.42;;
39256;SDS011;24958;48.066;11.038;2022-08-01T02:23:50;3.45;;;3.08;;
39256;SDS011;24958;48.066;11.038;2022-08-01T02:26:17;4.63;;;3.88;;
39256;SDS011;24958;48.066;11.038;2022-08-01T02:28:47;3.40;;;3.10;;
39256;SDS011;24958;48.066;11.038;2022-08-01T02:31:16;3.58;;;3.38;;
39256;SDS011;24958;48.066;11.038;2022-08-01T02:33:44;3.97;;;3.65;;
39256;SDS011;24958;48.066;11.038;2022-08-01T02:36:12;3.63;;;3.33;;
39256;SDS011;24958;48.066;11.038;2022-08-01T02:38:40;3.58;;;3.35;;
39256;SDS011;24958;48.066;11.038;2022-08-01T02:41:10;3.20;;;2.90;;
39256;SDS011;24958;48.066;11.038;2022-08-01T02:43:38;4.93;;;3.70;;
39256;SDS011;24958;48.066;11.038;2022-08-01T02:46:06;3.03;;;2.83;;
39256;SDS011;24958;48.066;11.038;2022-08-01T02:48:34;3.78;;;3.45;;
39256;SDS011;24958;48.066;11.038;2022-08-01T02:51:01;3.88;;;3.35;;
39256;SDS011;24958;48.066;11.038;2022-08-01T02:53:27;3.78;;;3.47;;
39256;SDS011;24958;48.066;11.038;2022-08-01T02:55:56;3.58;;;3.28;;
39256;SDS011;24958;48.066;11.038;2022-08-01T02:58:22;2.92;;;2.72;;
39256;SDS011;24958;48.066;11.038;2022-08-01T03:00:49;3.90;;;3.60;;
39256;SDS011;24958;48.066;11.038;2022-08-01T03:03:15;4.10;;;3.70;;
39256;SDS011;24958;48.066;11.038;2022-08-01T03:05:42;3.10;;;2.90;;
39256;SDS011;24958;48.066;11.038;2022-08-01T03:08:09;3.65;;;3.35;;
39256;SDS011;24958;48.066;11.038;2022-08-01T03:10:36;4.35;;;3.90;;
39256;SDS011;24958;48.066;11.038;2022-08-01T03:13:04;3.38;;;3.10;;
39256;SDS011;24958;48.066;11.038;2022-08-01T03:15:32;3.65;;;3.35;;
39256;SDS011;24958;48.066;11.038;2022-08-01T03:17:59;3.47;;;3.17;;
39256;SDS011;24958;48.066;11.038;2022-08-01T03:20:26;3.58;;;3.30;;
39256;SDS011;24958;48.066;11.038;2022-08-01T03:22:52;3.20;;;2.90;;
39256;SDS011;24958;48.066;11.038;2022-08-01T03:25:19;3.53;;;3.22;;
39256;SDS011;24958;48.066;11.038;2022-08-01T03:27:48;3.70;;;3.40;;
39256;SDS011;24958;48.066;11.038;2022-08-01T03:30:15;3.60;;;3.20;;
39256;SDS011;24958;48.066;11.038;2022-08-01T03:32:42;3.90;;;3.50;;
39256;SDS011;24958;48.066;11.038;2022-08-01T03:35:08;4.05;;;3.60;;
39256;SDS011;24958;48.066;11.038;2022-08-01T03:37:52;4.28;;;3.72;;
39256;SDS011;24958;48.066;11.038;2022-08-01T03:40:28;3.45;;;3.20;;
39256;SDS011;24958;48.066;11.038;2022-08-01T03:42:58;3.65;;;3.40;;
39256;SDS011;24958;48.066;11.038;2022-08-01T03:45:27;3.40;;;3.10;;
39256;SDS011;24958;48.066;11.038;2022-08-01T03:47:59;3.83;;;3.53;;
39256;SDS011;24958;48.066;11.038;2022-08-01T03:50:26;3.47;;;3.17;;
39256;SDS011;24958;48.066;11.038;2022-08-01T03:52:53;4.50;;;3.50;;
39256;SDS011;24958;48.066;11.038;2022-08-01T03:55:20;3.83;;;3.47;;
39256;SDS011;24958;48.066;11.038;2022-08-01T03:57:47;3.50;;;3.20;;
39256;SDS011;24958;48.066;11.038;2022-08-01T04:00:13;3.63;;;3.33;;
39256;SDS011;24958;48.066;11.038;2022-08-01T04:02:43;3.20;;;3.00;;
39256;SDS011;24958;48.066;11.038;2022-08-01T04:05:09;3.95;;;3.65;;
39256;SDS011;24958;48.066;11.038;2022-08-01T04:07:35;3.17;;;2.88;;
39256;SDS011;24958;48.066;11.038;2022-08-01T04:10:04;3.92;;;3.63;;
39256;SDS011;24958;48.066;11.038;2022-08-01T04:12:30;3.95;;;2.95;;
39256;SDS011;24958;48.066;11.038;2022-08-01T04:14:56;4.18;;;3.78;;
39256;SDS011;24958;48.066;11.038;2022-08-01T04:17:22;3.28;;;3.08;;
39256;SDS011;24958;48.066;11.038;2022-08-01T04:19:47;3.88;;;2.75;;
39256;SDS011;24958;48.066;11.038;2022-08-01T04:22:14;4.00;;;3.67;;
39256;SDS011;24958;48.066;11.038;2022-08-01T04:24:41;3.58;;;3.28;;
39256;SDS011;24958;48.066;11.038;2022-08-01T04:27:11;3.90;;;3.60;;
39256;SDS011;24958;48.066;11.038;2022-08-01T04:29:38;3.50;;;3.00;;
39256;SDS011;24958;48.066;11.038;2022-08-01T04:32:06;3.28;;;2.90;;
39256;SDS011;24958;48.066;11.038;2022-08-01T04:34:32;3.42;;;3.13;;
39256;SDS011;24958;48.066;11.038;2022-08-01T04:36:59;3.70;;;3.40;;
39256;SDS011;24958;48.066;11.038;2022-08-01T04:39:26;3.22;;;3.00;;
39256;SDS011;24958;48.066;11.038;2022-08-01T04:41:53;3.20;;;3.00;;
39256;SDS011;24958;48.066;11.038;2022-08-01T04:44:23;3.20;;;3.00;;
39256;SDS011;24958;48.066;11.038;2022-08-01T04:46:49;3.13;;;2.90;;
39256;SDS011;24958;48.066;11.038;2022-08-01T04:49:19;3.47;;;3.28;;
39256;SDS011;24958;48.066;11.038;2022-08-01T04:51:49;4.53;;;3.30;;
39256;SDS011;24958;48.066;11.038;2022-08-01T04:54:15;3.22;;;2.95;;
39256;SDS011;24958;48.066;11.038;2022-08-01T04:56:42;4.20;;;3.55;;
39256;SDS011;24958;48.066;11.038;2022-08-01T04:59:08;2.88;;;2.67;;
39256;SDS011;24958;48.066;11.038;2022-08-01T05:01:53;3.47;;;3.17;;
39256;SDS011;24958;48.066;11.038;2022-08-01T05:04:19;3.25;;;3.05;;
39256;SDS011;24958;48.066;11.038;2022-08-01T05:06:45;3.20;;;3.00;;
39256;SDS011;24958;48.066;11.038;2022-08-01T05:09:11;3.80;;;3.50;;
39256;SDS011;24958;48.066;11.038;2022-08-01T05:11:37;3.20;;;2.90;;
39256;SDS011;24958;48.066;11.038;2022-08-01T05:14:03;3.45;;;3.15;;
39256;SDS011;24958;48.066;11.038;2022-08-01T05:16:29;3.20;;;3.00;;
39256;SDS011;24958;48.066;11.038;2022-08-01T05:18:55;4.40;;;3.00;;
39256;SDS011;24958;48.066;11.038;2022-08-01T05:21:21;3.60;;;3.30;;
39256;SDS011;24958;48.066;11.038;2022-08-01T05:23:47;3.63;;;3.25;;
39256;SDS011;24958;48.066;11.038;2022-08-01T05:26:14;3.40;;;3.20;;
39256;SDS011;24958;48.066;11.038;2022-08-01T05:28:40;3.75;;;3.42;;
39256;SDS011;24958;48.066;11.038;2022-08-01T05:31:06;3.60;;;3.30;;
39256;SDS011;24958;48.066;11.038;2022-08-01T05:33:32;3.90;;;3.55;;
39256;SDS011;24958;48.066;11.038;2022-08-01T05:35:58;3.67;;;3.38;;
39256;SDS011;24958;48.066;11.038;2022-08-01T05:38:24;3.83;;;3.53;;
39256;SDS011;24958;48.066;11.038;2022-08-01T05:40:50;3.22;;;2.92;;
39256;SDS011;24958;48.066;11.038;2022-08-01T05:43:16;4.05;;;3.40;;
39256;SDS011;24958;48.066;11.038;2022-08-01T05:45:42;3.40;;;3.10;;
39256;SDS011;24958;48.066;11.038;2022-08-01T05:48:09;3.70;;;3.40;;
39256;SDS011;24958;48.066;11.038;2022-08-01T05:50:35;3.50;;;3.20;;
39256;SDS011;24958;48.066;11.038;2022-08-01T05:53:01;3.50;;;3.20;;
39256;SDS011;24958;48.066;11.038;2022-08-01T05:55:27;3.60;;;2.95;;
39256;SDS011;24958;48.066;11.038;2022-08-01T05:57:53;3.75;;;3.42;;
39256;SDS011;24958;48.066;11.038;2022-08-01T06:00:19;3.05;;;2.85;;
39256;SDS011;24958;48.066;11.038;2022-08-01T06:02:45;3.50;;;3.20;;
39256;SDS011;24958;48.066;11.038;2022-08-01T06:05:11;3.20;;;2.90;;
39256;SDS011;24958;48.066;11.038;2022-08-01T06:07:37;3.88;;;3.58;;
39256;SDS011;24958;48.066;11.038;2022-08-01T06:10:04;3.60;;;3.10;;
39256;SDS011;24958;48.066;11.038;2022-08-01T06:12:32;4.75;;;3.33;;
39256;SDS011;24958;48.066;11.038;2022-08-01T06:14:58;3.67;;;3.38;;
39256;SDS011;24958;48.066;11.038;2022-08-01T06:17:24;3.53;;;3.22;;
39256;SDS011;24958;48.066;11.038;2022-08-01T06:19:50;3.90;;;3.50;;
39256;SDS011;24958;48.066;11.038;2022-08-01T06:22:16;3.85;;;3.45;;
39256;SDS011;24958;48.066;11.038;2022-08-01T06:24:42;3.83;;;3.53;;
39256;SDS011;24958;48.066;11.038;2022-08-01T06:27:08;4.00;;;3.58;;
39256;SDS011;24958;48.066;11.038;2022-08-01T06:29:34;3.67;;;3.40;;
39256;SDS011;24958;48.066;11.038;2022-08-01T06:32:00;4.05;;;3.75;;
39256;SDS011;24958;48.066;11.038;2022-08-01T06:34:26;3.30;;;3.00;;
39256;SDS011;24958;48.066;11.038;2022-08-01T06:36:52;3.35;;;3.05;;
39256;SDS011;24958;48.066;11.038;2022-08-01T06:39:18;3.67;;;3.30;;
39256;SDS011;24958;48.066;11.038;2022-08-01T06:41:44;3.80;;;3.50;;
39256;SDS011;24958;48.066;11.038;2022-08-01T06:44:12;3.58;;;3.30;;
39256;SDS011;24958;48.066;11.038;2022-08-01T06:46:38;3.88;;;3.58;;
39256;SDS011;24958;48.066;11.038;2022-08-01T06:49:04;3.60;;;3.30;;
39256;SDS011;24958;48.066;11.038;2022-08-01T06:51:30;4.28;;;3.50;;
39256;SDS011;24958;48.066;11.038;2022-08-01T06:53:56;3.50;;;3.20;;
39256;SDS011;24958;48.066;11.038;2022-08-01T06:56:22;3.60;;;3.30;;
39256;SDS011;24958;48.066;11.038;2022-08-01T06:58:49;3.92;;;3.60;;
39256;SDS011;24958;48.066;11.038;2022-08-01T07:01:15;4.45;;;3.30;;
39256;SDS011;24958;48.066;11.038;2022-08-01T07:03:41;3.70;;;3.40;;
39256;SDS011;24958;48.066;11.038;2022-08-01T07:06:07;4.25;;;3.85;;
39256;SDS011;24958;48.066;11.038;2022-08-01T07:08:34;3.80;;;3.50;;
39256;SDS011;24958;48.066;11.038;2022-08-01T07:11:00;3.80;;;3.50;;
39256;SDS011;24958;48.066;11.038;2022-08-01T07:13:26;4.30;;;3.55;;
39256;SDS011;24958;48.066;11.038;2022-08-01T07:15:53;3.90;;;3.60;;
39256;SDS011;24958;48.066;11.038;2022-08-01T07:18:19;8.45;;;3.90;;
39256;SDS011;24958;48.066;11.038;2022-08-01T07:20:45;4.00;;;3.70;;
39256;SDS011;24958;48.066;11.038;2022-08-01T07:23:14;3.88;;;3.58;;
39256;SDS011;24958;48.066;11.038;2022-08-01T07:25:40;3.90;;;3.60;;
39256;SDS011;24958;48.066;11.038;2022-08-01T07:28:06;3.47;;;3.28;;
39256;SDS011;24958;48.066;11.038;2022-08-01T07:30:32;3.67;;;3.38;;
39256;SDS011;24958;48.066;11.038;2022-08-01T07:32:58;4.03;;;3.60;;
39256;SDS011;24958;48.066;11.038;2022-08-01T07:35:24;3.95;;;3.65;;
39256;SDS011;24958;48.066;11.038;2022-08-01T07:37:50;3.72;;;3.40;;
39256;SDS011;24958;48.066;11.038;2022-08-01T07:40:18;4.00;;;3.70;;
39256;SDS011;24958;48.066;11.038;2022-08-01T07:42:44;4.28;;;3.83;;
39256;SDS011;24958;48.066;11.038;2022-08-01T07:45:11;5.45;;;3.80;;
39256;SDS011;24958;48.066;11.038;2022-08-01T07:47:37;3.85;;;3.53;;
39256;SDS011;24958;48.066;11.038;2022-08-01T07:50:03;4.20;;;3.80;;
39256;SDS011;24958;48.066;11.038;2022-08-01T07:52:30;3.95;;;3.65;;
39256;SDS011;24958;48.066;11.038;2022-08-01T07:54:56;4.22;;;3.88;;
39256;SDS011;24958;48.066;11.038;2022-08-01T07:57:23;4.13;;;3.72;;
39256;SDS011;24958;48.066;11.038;2022-08-01T07:59:49;4.07;;;3.75;;
39256;SDS011;24958;48.066;11.038;2022-08-01T08:02:16;3.88;;;3.58;;
39256;SDS011;24958;48.066;11.038;2022-08-01T08:04:42;3.88;;;3.55;;
39256;SDS011;24958;48.066;11.038;2022-08-01T08:07:08;4.10;;;3.80;;
39256;SDS011;24958;48.066;11.038;2022-08-01T08:09:34;3.97;;;3.67;;
39256;SDS011;24958;48.066;11.038;2022-08-01T08:11:59;4.22;;;3.85;;
39256;SDS011;24958;48.066;11.038;2022-08-01T08:14:26;4.00;;;3.70;;
39256;SDS011;24958;48.066;11.038;2022-08-01T08:16:52;3.80;;;3.50;;
39256;SDS011;24958;48.066;11.038;2022-08-01T08:19:18;4.70;;;4.00;;
39256;SDS011;24958;48.066;11.038;2022-08-01T08:21:44;4.28;;;3.88;;
39256;SDS011;24958;48.066;11.038;2022-08-01T08:24:10;4.30;;;3.90;;
39256;SDS011;24958;48.066;11.038;2022-08-01T08:26:46;3.40;;;3.10;;
39256;SDS011;24958;48.066;11.038;2022-08-01T08:29:12;3.90;;;3.60;;
39256;SDS011;24958;48.066;11.038;2022-08-01T08:31:38;3.78;;;3.38;;
39256;SDS011;24958;48.066;11.038;2022-08-01T08:34:04;3.50;;;3.20;;
39256;SDS011;24958;48.066;11.038;2022-08-01T08:36:30;3.20;;;2.90;;
39256;SDS011;24958;48.066;11.038;2022-08-01T08:38:56;3.47;;;3.17;;
39256;SDS011;24958;48.066;11.038;2022-08-01T08:41:22;3.40;;;3.10;;
39256;SDS011;24958;48.066;11.038;2022-08-01T08:43:48;3.85;;;3.40;;
39256;SDS011;24958;48.066;11.038;2022-08-01T08:46:14;3.30;;;3.00;;
39256;SDS011;24958;48.066;11.038;2022-08-01T08:48:41;3.50;;;3.20;;
39256;SDS011;24958;48.066;11.038;2022-08-01T08:51:07;2.70;;;2.50;;
39256;SDS011;24958;48.066;11.038;2022-08-01T08:53:35;3.55;;;3.25;;
39256;SDS011;24958;48.066;11.038;2022-08-01T08:56:02;4.03;;;3.38;;
39256;SDS011;24958;48.066;11.038;2022-08-01T08:58:29;3.30;;;3.00;;
39256;SDS011;24958;48.066;11.038;2022-08-01T09:00:59;4.03;;;3.70;;
39256;SDS011;24958;48.066;11.038;2022-08-01T09:03:25;3.22;;;3.03;;
39256;SDS011;24958;48.066;11.038;2022-08-01T09:05:51;3.42;;;3.20;;
39256;SDS011;24958;48.066;11.038;2022-08-01T09:08:17;3.58;;;2.85;;
39256;SDS011;24958;48.066;11.038;2022-08-01T09:10:43;3.42;;;3.13;;
39256;SDS011;24958;48.066;11.038;2022-08-01T09:13:13;3.00;;;2.80;;
39256;SDS011;24958;48.066;11.038;2022-08-01T09:15:40;2.80;;;2.60;;
39256;SDS011;24958;48.066;11.038;2022-08-01T09:18:06;3.03;;;2.80;;
39256;SDS011;24958;48.066;11.038;2022-08-01T09:20:32;2.90;;;2.70;;
39256;SDS011;24958;48.066;11.038;2022-08-01T09:23:01;2.90;;;2.70;;
39256;SDS011;24958;48.066;11.038;2022-08-01T09:25:28;3.20;;;2.90;;
39256;SDS011;24958;48.066;11.038;2022-08-01T09:28:02;3.22;;;2.88;;
39256;SDS011;24958;48.066;11.038;2022-08-01T09:30:28;3.15;;;2.72;;
39256;SDS011;24958;48.066;11.038;2022-08-01T09:33:02;2.78;;;2.58;;
39256;SDS011;24958;48.066;11.038;2022-08-01T09:35:30;2.55;;;2.35;;
39256;SDS011;24958;48.066;11.038;2022-08-01T09:38:32;2.50;;;2.30;;
39256;SDS011;24958;48.066;11.038;2022-08-01T09:40:53;3.15;;;2.83;;
39256;SDS011;24958;48.066;11.038;2022-08-01T09:43:19;2.70;;;2.50;;
39256;SDS011;24958;48.066;11.038;2022-08-01T09:45:46;3.00;;;2.80;;
39256;SDS011;24958;48.066;11.038;2022-08-01T09:48:12;3.47;;;2.83;;
39256;SDS011;24958;48.066;11.038;2022-08-01T09:50:38;3.55;;;2.88;;
39256;SDS011;24958;48.066;11.038;2022-08-01T09:53:05;3.47;;;2.72;;
39256;SDS011;24958;48.066;11.038;2022-08-01T09:55:31;2.50;;;2.30;;
39256;SDS011;24958;48.066;11.038;2022-08-01T09:57:57;2.40;;;2.30;;
39256;SDS011;24958;48.066;11.038;2022-08-01T10:00:25;2.80;;;2.60;;
39256;SDS011;24958;48.066;11.038;2022-08-01T10:02:51;2.70;;;2.50;;
39256;SDS011;24958;48.066;11.038;2022-08-01T10:05:17;2.78;;;2.58;;
39256;SDS011;24958;48.066;11.038;2022-08-01T10:07:55;2.70;;;2.50;;
39256;SDS011;24958;48.066;11.038;2022-08-01T10:10:21;2.92;;;2.72;;
39256;SDS011;24958;48.066;11.038;2022-08-01T10:12:47;3.05;;;2.75;;
39256;SDS011;24958;48.066;11.038;2022-08-01T10:15:14;2.83;;;2.60;;
39256;SDS011;24958;48.066;11.038;2022-08-01T10:17:41;2.83;;;2.63;;
39256;SDS011;24958;48.066;11.038;2022-08-01T10:20:11;3.08;;;2.70;;
39256;SDS011;24958;48.066;11.038;2022-08-01T10:22:38;3.50;;;2.50;;
39256;SDS011;24958;48.066;11.038;2022-08-01T10:25:05;3.63;;;2.70;;
39256;SDS011;24958;48.066;11.038;2022-08-01T10:27:32;2.70;;;2.50;;
39256;SDS011;24958;48.066;11.038;2022-08-01T10:29:59;2.40;;;2.20;;
39256;SDS011;24958;48.066;11.038;2022-08-01T10:32:29;3.53;;;2.40;;
39256;SDS011;24958;48.066;11.038;2022-08-01T10:34:55;3.05;;;2.55;;
39256;SDS011;24958;48.066;11.038;2022-08-01T10:37:22;2.65;;;2.45;;
39256;SDS011;24958;48.066;11.038;2022-08-01T10:39:48;3.20;;;2.60;;
39256;SDS011;24958;48.066;11.038;2022-08-01T10:42:14;4.10;;;2.65;;
39256;SDS011;24958;48.066;11.038;2022-08-01T10:44:40;3.30;;;2.88;;
39256;SDS011;24958;48.066;11.038;2022-08-01T10:47:10;2.80;;;2.60;;
39256;SDS011;24958;48.066;11.038;2022-08-01T10:50:20;2.60;;;2.40;;
39256;SDS011;24958;48.066;11.038;2022-08-01T10:52:25;3.92;;;2.67;;
39256;SDS011;24958;48.066;11.038;2022-08-01T10:55:02;2.88;;;2.53;;
39256;SDS011;24958;48.066;11.038;2022-08-01T10:57:41;3.00;;;2.50;;
39256;SDS011;24958;48.066;11.038;2022-08-01T11:00:07;2.80;;;2.60;;
39256;SDS011;24958;48.066;11.038;2022-08-01T11:02:33;2.70;;;2.50;;
39256;SDS011;24958;48.066;11.038;2022-08-01T11:05:09;5.00;;;2.90;;
39256;SDS011;24958;48.066;11.038;2022-08-01T11:10:10;2.60;;;2.40;;
39256;SDS011;24958;48.066;11.038;2022-08-01T11:12:41;2.80;;;2.60;;
39256;SDS011;24958;48.066;11.038;2022-08-01T11:17:40;2.60;;;2.40;;
39256;SDS011;24958;48.066;11.038;2022-08-01T11:20:22;2.78;;;2.55;;
39256;SDS011;24958;48.066;11.038;2022-08-01T11:33:09;2.42;;;2.22;;
39256;SDS011;24958;48.066;11.038;2022-08-01T11:35:36;2.63;;;2.42;;
39256;SDS011;24958;48.066;11.038;2022-08-01T11:40:46;2.25;;;2.13;;
39256;SDS011;24958;48.066;11.038;2022-08-01T11:48:23;2.60;;;2.40;;
39256;SDS011;24958;48.066;11.038;2022-08-01T11:50:50;2.28;;;2.05;;
39256;SDS011;24958;48.066;11.038;2022-08-01T11:53:16;3.03;;;2.40;;
39256;SDS011;24958;48.066;11.038;2022-08-01T11:55:53;3.13;;;2.10;;
39256;SDS011;24958;48.066;11.038;2022-08-01T11:58:21;2.50;;;2.30;;
39256;SDS011;24958;48.066;11.038;2022-08-01T12:00:51;2.10;;;2.00;;
39256;SDS011;24958;48.066;11.038;2022-08-01T12:03:22;2.20;;;2.00;;
39256;SDS011;24958;48.066;11.038;2022-08-01T12:05:48;5.60;;;2.10;;
39256;SDS011;24958;48.066;11.038;2022-08-01T12:08:23;2.30;;;1.92;;
39256;SDS011;24958;48.066;11.038;2022-08-01T12:10:49;2.78;;;2.05;;
39256;SDS011;24958;48.066;11.038;2022-08-01T12:13:15;2.72;;;2.33;;
39256;SDS011;24958;48.066;11.038;2022-08-01T12:15:42;2.28;;;1.92;;
39256;SDS011;24958;48.066;11.038;2022-08-01T12:18:09;2.35;;;2.15;;
39256;SDS011;24958;48.066;11.038;2022-08-01T12:20:36;2.13;;;1.92;;
39256;SDS011;24958;48.066;11.038;2022-08-01T12:23:03;4.25;;;2.30;;
39256;SDS011;24958;48.066;11.038;2022-08-01T12:25:32;2.30;;;2.03;;
39256;SDS011;24958;48.066;11.038;2022-08-01T12:27:59;2.72;;;1.98;;
39256;SDS011;24958;48.066;11.038;2022-08-01T12:30:26;3.25;;;1.88;;
39256;SDS011;24958;48.066;11.038;2022-08-01T12:32:53;1.95;;;1.77;;
39256;SDS011;24958;48.066;11.038;2022-08-01T12:35:20;2.13;;;1.95;;
39256;SDS011;24958;48.066;11.038;2022-08-01T12:37:52;2.00;;;1.90;;
39256;SDS011;24958;48.066;11.038;2022-08-01T12:40:20;2.58;;;1.75;;
39256;SDS011;24958;48.066;11.038;2022-08-01T12:42:47;1.70;;;1.60;;
39256;SDS011;24958;48.066;11.038;2022-08-01T12:45:14;3.42;;;1.67;;
39256;SDS011;24958;48.066;11.038;2022-08-01T12:47:40;2.38;;;2.17;;
39256;SDS011;24958;48.066;11.038;2022-08-01T12:50:08;2.40;;;1.70;;
39256;SDS011;24958;48.066;11.038;2022-08-01T12:52:36;2.42;;;2.10;;
39256;SDS011;24958;48.066;11.038;2022-08-01T12:57:29;2.05;;;1.80;;
39256;SDS011;24958;48.066;11.038;2022-08-01T13:00:05;3.22;;;1.90;;
39256;SDS011;24958;48.066;11.038;2022-08-01T13:02:32;2.42;;;2.08;;
39256;SDS011;24958;48.066;11.038;2022-08-01T13:04:58;2.08;;;1.98;;
39256;SDS011;24958;48.066;11.038;2022-08-01T13:07:34;2.08;;;1.70;;
39256;SDS011;24958;48.066;11.038;2022-08-01T13:10:00;2.58;;;1.90;;
39256;SDS011;24958;48.066;11.038;2022-08-01T13:12:26;2.22;;;1.92;;
39256;SDS011;24958;48.066;11.038;2022-08-01T13:14:52;2.45;;;1.92;;
39256;SDS011;24958;48.066;11.038;2022-08-01T13:17:31;2.30;;;2.10;;
39256;SDS011;24958;48.066;11.038;2022-08-01T13:19:57;2.20;;;1.90;;
39256;SDS011;24958;48.066;11.038;2022-08-01T13:22:33;1.95;;;1.85;;
39256;SDS011;24958;48.066;11.038;2022-08-01T13:25:09;1.83;;;1.63;;
39256;SDS011;24958;48.066;11.038;2022-08-01T13:27:35;2.72;;;2.13;;
39256;SDS011;24958;48.066;11.038;2022-08-01T13:30:12;3.72;;;2.05;;
39256;SDS011;24958;48.066;11.038;2022-08-01T13:32:38;2.10;;;2.00;;
39256;SDS011;24958;48.066;11.038;2022-08-01T13:35:06;2.80;;;2.40;;
39256;SDS011;24958;48.066;11.038;2022-08-01T13:37:32;2.47;;;2.22;;
39256;SDS011;24958;48.066;11.038;2022-08-01T13:39:58;2.22;;;2.08;;
39256;SDS011;24958;48.066;11.038;2022-08-01T13:42:24;2.67;;;2.10;;
39256;SDS011;24958;48.066;11.038;2022-08-01T13:44:50;2.63;;;2.20;;
39256;SDS011;24958;48.066;11.038;2022-08-01T13:47:16;2.20;;;2.00;;
39256;SDS011;24958;48.066;11.038;2022-08-01T13:49:42;2.85;;;2.20;;
39256;SDS011;24958;48.066;11.038;2022-08-01T13:52:08;2.55;;;1.88;;
39256;SDS011;24958;48.066;11.038;2022-08-01T13:54:35;2.28;;;1.92;;
39256;SDS011;24958;48.066;11.038;2022-08-01T13:57:01;2.30;;;2.10;;
39256;SDS011;24958;48.066;11.038;2022-08-01T13:59:27;2.00;;;1.90;;
39256;SDS011;24958;48.066;11.038;2022-08-01T14:01:53;2.42;;;2.00;;
39256;SDS011;24958;48.066;11.038;2022-08-01T14:04:19;2.22;;;1.73;;
39256;SDS011;24958;48.066;11.038;2022-08-01T14:06:46;2.78;;;2.10;;
39256;SDS011;24958;48.066;11.038;2022-08-01T14:09:12;2.20;;;1.90;;
39256;SDS011;24958;48.066;11.038;2022-08-01T14:11:38;2.47;;;2.00;;
39256;SDS011;24958;48.066;11.038;2022-08-01T14:14:04;2.72;;;2.03;;
39256;SDS011;24958;48.066;11.038;2022-08-01T14:16:30;2.55;;;2.00;;
39256;SDS011;24958;48.066;11.038;2022-08-01T14:18:56;2.58;;;1.95;;
39256;SDS011;24958;48.066;11.038;2022-08-01T14:21:22;2.53;;;2.30;;
39256;SDS011;24958;48.066;11.038;2022-08-01T14:23:48;2.97;;;2.13;;
39256;SDS011;24958;48.066;11.038;2022-08-01T14:26:14;3.38;;;2.42;;
39256;SDS011;24958;48.066;11.038;2022-08-01T14:28:40;2.90;;;2.65;;
39256;SDS011;24958;48.066;11.038;2022-08-01T14:31:06;2.67;;;2.47;;
39256;SDS011;24958;48.066;11.038;2022-08-01T14:33:32;3.55;;;3.00;;
39256;SDS011;24958;48.066;11.038;2022-08-01T14:35:58;3.10;;;2.80;;
39256;SDS011;24958;48.066;11.038;2022-08-01T14:38:24;3.53;;;2.92;;
39256;SDS011;24958;48.066;11.038;2022-08-01T14:40:50;4.00;;;2.72;;
39256;SDS011;24958;48.066;11.038;2022-08-01T14:43:17;3.20;;;2.90;;
39256;SDS011;24958;48.066;11.038;2022-08-01T14:45:44;4.05;;;2.70;;
39256;SDS011;24958;48.066;11.038;2022-08-01T14:48:10;3.58;;;3.00;;
39256;SDS011;24958;48.066;11.038;2022-08-01T14:50:36;4.07;;;2.90;;
39256;SDS011;24958;48.066;11.038;2022-08-01T14:53:02;4.25;;;3.22;;
39256;SDS011;24958;48.066;11.038;2022-08-01T14:55:28;3.00;;;2.80;;
39256;SDS011;24958;48.066;11.038;2022-08-01T14:57:54;2.92;;;2.70;;
39256;SDS011;24958;48.066;11.038;2022-08-01T15:00:20;3.13;;;2.83;;
39256;SDS011;24958;48.066;11.038;2022-08-01T15:02:46;3.70;;;3.05;;
39256;SDS011;24958;48.066;11.038;2022-08-01T15:05:13;2.90;;;2.70;;
39256;SDS011;24958;48.066;11.038;2022-08-01T15:07:39;2.58;;;2.38;;
39256;SDS011;24958;48.066;11.038;2022-08-01T15:10:05;2.53;;;2.30;;